BCS448 EDDK-LEVT
Flight info
| Callsign | BCS448 |
|---|---|
| Flight time | 1h 43m |
| Altitude | 35000 |
| Route | NVO3F NVO Y868 NAVAK Z283 LNO DCT RASCA DCT FAMEN DCT CLM DCT DISAK DCT ARKIP DCT ARNAV DCT LMG DCT UVELI DCT OSMOB DCT VAVIX DCT BTZ DCT URUNA DCT SSN DCT CEGAM |
| Aircraft | B738/M-SDFGHIRWY/LB1 |
Departure
| Time | 2026-05-07 20:00 |
|---|---|
| Airport | Cologne Bonn Airport (EDDK) |
Arrival
| Time | 2026-05-07 21:43 |
|---|---|
| Airport | Vitoria Airport (LEVT) |
| Time | Latitude | Longitude | Altitude | Speed | Heading |
|---|---|---|---|---|---|
| 2026-05-07 19:25 | 50.87642 | 7.12701 | 231 ft | 0 kts | 227° |
| 2026-05-07 19:49 | 50.87645 | 7.12705 | 232 ft | 3 kts | 230° |
| 2026-05-07 19:49 | 50.87656 | 7.12738 | 235 ft | 4 kts | 233° |
| 2026-05-07 19:49 | 50.87671 | 7.12773 | 232 ft | 4 kts | 242° |
| 2026-05-07 19:50 | 50.87679 | 7.12812 | 233 ft | 4 kts | 273° |
| 2026-05-07 19:50 | 50.87673 | 7.12838 | 236 ft | 0 kts | 317° |
| 2026-05-07 19:55 | 50.87676 | 7.12834 | 233 ft | 3 kts | 317° |
| 2026-05-07 19:55 | 50.87710 | 7.12785 | 231 ft | 8 kts | 317° |
| 2026-05-07 19:55 | 50.87752 | 7.12722 | 231 ft | 8 kts | 317° |
| 2026-05-07 19:55 | 50.87794 | 7.12661 | 231 ft | 8 kts | 317° |
| 2026-05-07 19:56 | 50.87838 | 7.12612 | 231 ft | 8 kts | 346° |
| 2026-05-07 19:56 | 50.87891 | 7.12614 | 231 ft | 7 kts | 12° |
| 2026-05-07 19:56 | 50.87937 | 7.12646 | 233 ft | 7 kts | 33° |
| 2026-05-07 19:56 | 50.87967 | 7.12687 | 232 ft | 0 kts | 45° |
| 2026-05-07 19:58 | 50.87970 | 7.12691 | 232 ft | 2 kts | 45° |
| 2026-05-07 19:58 | 50.87992 | 7.12743 | 235 ft | 8 kts | 63° |
| 2026-05-07 19:58 | 50.88010 | 7.12846 | 238 ft | 11 kts | 81° |
| 2026-05-07 19:58 | 50.88004 | 7.12969 | 238 ft | 12 kts | 126° |
| 2026-05-07 19:59 | 50.87944 | 7.13059 | 238 ft | 14 kts | 137° |
| 2026-05-07 19:59 | 50.87737 | 7.13363 | 238 ft | 76 kts | 137° |
| 2026-05-07 19:59 | 50.87174 | 7.14175 | 247 ft | 140 kts | 137° |
| 2026-05-07 19:59 | 50.86351 | 7.15353 | 550 ft | 167 kts | 136° |
| 2026-05-07 20:00 | 50.85506 | 7.16493 | 1504 ft | 156 kts | 136° |
| 2026-05-07 20:00 | 50.84720 | 7.17629 | 2377 ft | 148 kts | 136° |
| 2026-05-07 20:00 | 50.83963 | 7.18714 | 3045 ft | 149 kts | 137° |
| 2026-05-07 20:00 | 50.83109 | 7.19920 | 3330 ft | 179 kts | 138° |
| 2026-05-07 20:01 | 50.82102 | 7.21326 | 3608 ft | 207 kts | 138° |
| 2026-05-07 20:01 | 50.80961 | 7.22907 | 3846 ft | 227 kts | 139° |
| 2026-05-07 20:01 | 50.79655 | 7.24370 | 4316 ft | 236 kts | 161° |
| 2026-05-07 20:01 | 50.78029 | 7.24535 | 5012 ft | 238 kts | 192° |
| 2026-05-07 20:02 | 50.76517 | 7.23439 | 5527 ft | 252 kts | 221° |
| 2026-05-07 20:02 | 50.75536 | 7.21084 | 5969 ft | 265 kts | 256° |
| 2026-05-07 20:02 | 50.75499 | 7.18189 | 6708 ft | 267 kts | 280° |
| 2026-05-07 20:02 | 50.75862 | 7.15289 | 7463 ft | 271 kts | 282° |
| 2026-05-07 20:03 | 50.76271 | 7.12367 | 8195 ft | 275 kts | 283° |
| 2026-05-07 20:03 | 50.76684 | 7.09396 | 8966 ft | 279 kts | 282° |
| 2026-05-07 20:03 | 50.77089 | 7.06377 | 9709 ft | 283 kts | 282° |
| 2026-05-07 20:03 | 50.77494 | 7.03271 | 10384 ft | 289 kts | 281° |
| 2026-05-07 20:04 | 50.77899 | 7.00079 | 10576 ft | 312 kts | 281° |
| 2026-05-07 20:04 | 50.78332 | 6.96606 | 10788 ft | 332 kts | 281° |
| 2026-05-07 20:04 | 50.78780 | 6.92967 | 11312 ft | 341 kts | 281° |
| 2026-05-07 20:04 | 50.79231 | 6.89273 | 12023 ft | 343 kts | 280° |
| 2026-05-07 20:05 | 50.79681 | 6.85562 | 12796 ft | 345 kts | 280° |
| 2026-05-07 20:05 | 50.80133 | 6.81818 | 13561 ft | 348 kts | 280° |
| 2026-05-07 20:05 | 50.80588 | 6.78038 | 14265 ft | 352 kts | 280° |
| 2026-05-07 20:05 | 50.81045 | 6.74231 | 14956 ft | 355 kts | 280° |
| 2026-05-07 20:06 | 50.81505 | 6.70382 | 15659 ft | 358 kts | 280° |
| 2026-05-07 20:06 | 50.81969 | 6.66488 | 16361 ft | 361 kts | 280° |
| 2026-05-07 20:06 | 50.82364 | 6.62547 | 16993 ft | 366 kts | 274° |
| 2026-05-07 20:06 | 50.82471 | 6.58506 | 17523 ft | 369 kts | 271° |
| 2026-05-07 20:07 | 50.82499 | 6.54438 | 18065 ft | 370 kts | 270° |
| 2026-05-07 20:07 | 50.82513 | 6.50356 | 18577 ft | 373 kts | 270° |
| 2026-05-07 20:07 | 50.82531 | 6.46240 | 19062 ft | 375 kts | 270° |
| 2026-05-07 20:07 | 50.82558 | 6.42103 | 19549 ft | 377 kts | 270° |
| 2026-05-07 20:08 | 50.82592 | 6.37949 | 20042 ft | 379 kts | 270° |
| 2026-05-07 20:08 | 50.82630 | 6.33775 | 20547 ft | 380 kts | 270° |
| 2026-05-07 20:08 | 50.82669 | 6.29591 | 21059 ft | 381 kts | 270° |
| 2026-05-07 20:08 | 50.82543 | 6.25408 | 21547 ft | 382 kts | 258° |
| 2026-05-07 20:09 | 50.81612 | 6.21490 | 22096 ft | 383 kts | 240° |
| 2026-05-07 20:09 | 50.79999 | 6.18124 | 22650 ft | 387 kts | 228° |
| 2026-05-07 20:09 | 50.78137 | 6.15035 | 23219 ft | 389 kts | 227° |
| 2026-05-07 20:10 | 50.74317 | 6.08899 | 24061 ft | 398 kts | 226° |
| 2026-05-07 20:10 | 50.72354 | 6.05745 | 24070 ft | 404 kts | 226° |
| 2026-05-07 20:10 | 50.70389 | 6.02573 | 24066 ft | 402 kts | 226° |
| 2026-05-07 20:10 | 50.68443 | 5.99416 | 24076 ft | 401 kts | 227° |
| 2026-05-07 20:11 | 50.66503 | 5.96259 | 24081 ft | 401 kts | 227° |
| 2026-05-07 20:11 | 50.64564 | 5.93099 | 24077 ft | 401 kts | 227° |
| 2026-05-07 20:11 | 50.62625 | 5.89940 | 24084 ft | 401 kts | 227° |
| 2026-05-07 20:11 | 50.60688 | 5.86783 | 24124 ft | 400 kts | 227° |
| 2026-05-07 20:12 | 50.58780 | 5.83678 | 24627 ft | 396 kts | 227° |
| 2026-05-07 20:12 | 50.56858 | 5.80552 | 25086 ft | 398 kts | 227° |
| 2026-05-07 20:12 | 50.54921 | 5.77406 | 25446 ft | 402 kts | 227° |
| 2026-05-07 20:12 | 50.52963 | 5.74230 | 25826 ft | 406 kts | 227° |
| 2026-05-07 20:13 | 50.50991 | 5.71036 | 26204 ft | 409 kts | 227° |
| 2026-05-07 20:13 | 50.49003 | 5.67818 | 26589 ft | 411 kts | 227° |
| 2026-05-07 20:13 | 50.47003 | 5.64589 | 26979 ft | 413 kts | 227° |
| 2026-05-07 20:13 | 50.45002 | 5.61361 | 27369 ft | 412 kts | 227° |
| 2026-05-07 20:14 | 50.43009 | 5.58150 | 27763 ft | 411 kts | 227° |
| 2026-05-07 20:14 | 50.41015 | 5.54943 | 28166 ft | 410 kts | 227° |
| 2026-05-07 20:14 | 50.39029 | 5.51751 | 28570 ft | 409 kts | 227° |
| 2026-05-07 20:14 | 50.37046 | 5.48569 | 28978 ft | 407 kts | 227° |
| 2026-05-07 20:15 | 50.35070 | 5.45402 | 29395 ft | 406 kts | 227° |
| 2026-05-07 20:15 | 50.33102 | 5.42251 | 29817 ft | 404 kts | 227° |
| 2026-05-07 20:15 | 50.31143 | 5.39119 | 30229 ft | 402 kts | 227° |
| 2026-05-07 20:15 | 50.29187 | 5.35996 | 30594 ft | 400 kts | 227° |
| 2026-05-07 20:16 | 50.27241 | 5.32892 | 30962 ft | 398 kts | 227° |
| 2026-05-07 20:16 | 50.25309 | 5.29814 | 31329 ft | 396 kts | 227° |
| 2026-05-07 20:16 | 50.23379 | 5.26744 | 31702 ft | 395 kts | 227° |
| 2026-05-07 20:16 | 50.21461 | 5.23697 | 32091 ft | 393 kts | 227° |
| 2026-05-07 20:17 | 50.19549 | 5.20661 | 32483 ft | 391 kts | 227° |
| 2026-05-07 20:17 | 50.17643 | 5.17641 | 32872 ft | 390 kts | 227° |
| 2026-05-07 20:17 | 50.15739 | 5.14626 | 33267 ft | 389 kts | 227° |
| 2026-05-07 20:17 | 50.13845 | 5.11630 | 33678 ft | 387 kts | 227° |
| 2026-05-07 20:18 | 50.11981 | 5.08686 | 34085 ft | 385 kts | 227° |
| 2026-05-07 20:18 | 50.10104 | 5.05725 | 34431 ft | 383 kts | 227° |
| 2026-05-07 20:18 | 50.08232 | 5.02776 | 34778 ft | 381 kts | 227° |
| 2026-05-07 20:18 | 50.06376 | 4.99854 | 35069 ft | 381 kts | 227° |
| 2026-05-07 20:19 | 50.04490 | 4.96887 | 35057 ft | 388 kts | 227° |
| 2026-05-07 20:19 | 50.00637 | 4.90837 | 35082 ft | 400 kts | 226° |
| 2026-05-07 20:20 | 49.96661 | 4.84611 | 35086 ft | 411 kts | 226° |
| 2026-05-07 20:20 | 49.92574 | 4.78229 | 35086 ft | 422 kts | 226° |
| 2026-05-07 20:21 | 49.88383 | 4.71703 | 35079 ft | 432 kts | 226° |
| 2026-05-07 20:21 | 49.84088 | 4.65032 | 35088 ft | 441 kts | 226° |
| 2026-05-07 20:22 | 49.79741 | 4.58299 | 35060 ft | 442 kts | 226° |
| 2026-05-07 20:22 | 49.75398 | 4.51591 | 35068 ft | 441 kts | 226° |
| 2026-05-07 20:23 | 49.71049 | 4.44890 | 35065 ft | 441 kts | 226° |
| 2026-05-07 20:23 | 49.66708 | 4.38220 | 35066 ft | 440 kts | 226° |
| 2026-05-07 20:24 | 49.62368 | 4.31568 | 35068 ft | 439 kts | 226° |
| 2026-05-07 20:24 | 49.58028 | 4.24934 | 35065 ft | 439 kts | 226° |
| 2026-05-07 20:25 | 49.53692 | 4.18323 | 35059 ft | 438 kts | 226° |
| 2026-05-07 20:25 | 49.49364 | 4.11742 | 35059 ft | 438 kts | 226° |
| 2026-05-07 20:26 | 49.45025 | 4.05163 | 35056 ft | 437 kts | 226° |
| 2026-05-07 20:26 | 49.40693 | 3.98610 | 35053 ft | 437 kts | 226° |
| 2026-05-07 20:27 | 49.36362 | 3.92076 | 35052 ft | 437 kts | 226° |
| 2026-05-07 20:27 | 49.32027 | 3.85553 | 35053 ft | 437 kts | 226° |
| 2026-05-07 20:28 | 49.27685 | 3.79037 | 35051 ft | 437 kts | 225° |
| 2026-05-07 20:28 | 49.23339 | 3.72531 | 35054 ft | 437 kts | 225° |
| 2026-05-07 20:29 | 49.18993 | 3.66043 | 35055 ft | 437 kts | 225° |
| 2026-05-07 20:29 | 49.14645 | 3.59567 | 35056 ft | 437 kts | 225° |
| 2026-05-07 20:30 | 49.10291 | 3.53101 | 35058 ft | 436 kts | 225° |
| 2026-05-07 20:30 | 49.05938 | 3.46652 | 35056 ft | 436 kts | 225° |
| 2026-05-07 20:31 | 49.01583 | 3.40217 | 35064 ft | 436 kts | 225° |
| 2026-05-07 20:31 | 48.97221 | 3.33789 | 35061 ft | 436 kts | 225° |
| 2026-05-07 20:32 | 48.93599 | 3.28463 | 35057 ft | 436 kts | 225° |
| 2026-05-07 20:32 | 48.89237 | 3.22064 | 35060 ft | 436 kts | 225° |
| 2026-05-07 20:33 | 48.84164 | 3.14643 | 35057 ft | 435 kts | 225° |
| 2026-05-07 20:33 | 48.80509 | 3.09309 | 35050 ft | 435 kts | 225° |
| 2026-05-07 20:34 | 48.76144 | 3.02955 | 35053 ft | 435 kts | 225° |
| 2026-05-07 20:34 | 48.71781 | 2.96620 | 35049 ft | 434 kts | 225° |
| 2026-05-07 20:35 | 48.67415 | 2.90295 | 35047 ft | 434 kts | 225° |
| 2026-05-07 20:35 | 48.63052 | 2.83992 | 35048 ft | 434 kts | 225° |
| 2026-05-07 20:36 | 48.58689 | 2.77705 | 35049 ft | 433 kts | 225° |
| 2026-05-07 20:36 | 48.54328 | 2.71435 | 35048 ft | 433 kts | 225° |
| 2026-05-07 20:37 | 48.49997 | 2.65224 | 35049 ft | 433 kts | 225° |
| 2026-05-07 20:37 | 48.45633 | 2.58982 | 35048 ft | 432 kts | 225° |
| 2026-05-07 20:38 | 48.41271 | 2.52757 | 35046 ft | 432 kts | 225° |
| 2026-05-07 20:38 | 48.36913 | 2.46554 | 35041 ft | 431 kts | 225° |
| 2026-05-07 20:39 | 48.32551 | 2.40360 | 35041 ft | 431 kts | 225° |
| 2026-05-07 20:39 | 48.28189 | 2.34181 | 35032 ft | 431 kts | 225° |
| 2026-05-07 20:40 | 48.23828 | 2.28019 | 35034 ft | 430 kts | 225° |
| 2026-05-07 20:40 | 48.19472 | 2.21876 | 35036 ft | 430 kts | 224° |
| 2026-05-07 20:41 | 48.14954 | 2.16006 | 35028 ft | 432 kts | 214° |
| 2026-05-07 20:41 | 48.09433 | 2.12427 | 35034 ft | 437 kts | 196° |
| 2026-05-07 20:42 | 48.03384 | 2.11122 | 35041 ft | 440 kts | 189° |
| 2026-05-07 20:42 | 47.97298 | 2.10066 | 35050 ft | 440 kts | 190° |
| 2026-05-07 20:43 | 47.91220 | 2.08946 | 35049 ft | 441 kts | 190° |
| 2026-05-07 20:43 | 47.85134 | 2.07781 | 35047 ft | 441 kts | 190° |
| 2026-05-07 20:44 | 47.79054 | 2.06611 | 35043 ft | 441 kts | 190° |
| 2026-05-07 20:44 | 47.72956 | 2.05442 | 35041 ft | 441 kts | 190° |
| 2026-05-07 20:45 | 47.66873 | 2.04281 | 35026 ft | 441 kts | 190° |
| 2026-05-07 20:45 | 47.60916 | 2.02368 | 35019 ft | 436 kts | 203° |
| 2026-05-07 20:46 | 47.55294 | 1.99041 | 35020 ft | 435 kts | 204° |
| 2026-05-07 20:46 | 47.49671 | 1.95706 | 35007 ft | 435 kts | 204° |
| 2026-05-07 20:47 | 47.44035 | 1.92425 | 35011 ft | 435 kts | 204° |
| 2026-05-07 20:47 | 47.38395 | 1.89169 | 35018 ft | 435 kts | 203° |
| 2026-05-07 20:48 | 47.32862 | 1.85984 | 35024 ft | 435 kts | 203° |
| 2026-05-07 20:48 | 47.27129 | 1.82688 | 35026 ft | 434 kts | 203° |
| 2026-05-07 20:49 | 47.21493 | 1.79456 | 35020 ft | 434 kts | 203° |
| 2026-05-07 20:49 | 47.15893 | 1.76279 | 35020 ft | 434 kts | 203° |
| 2026-05-07 20:50 | 47.10246 | 1.73109 | 35010 ft | 434 kts | 203° |
| 2026-05-07 20:50 | 47.04596 | 1.69943 | 35007 ft | 434 kts | 202° |
| 2026-05-07 20:51 | 46.98954 | 1.66784 | 35020 ft | 434 kts | 202° |
| 2026-05-07 20:51 | 46.93311 | 1.63629 | 35020 ft | 434 kts | 202° |
| 2026-05-07 20:52 | 46.87670 | 1.60482 | 35018 ft | 434 kts | 202° |
| 2026-05-07 20:52 | 46.82023 | 1.57340 | 35021 ft | 434 kts | 202° |
| 2026-05-07 20:53 | 46.76383 | 1.54208 | 35012 ft | 434 kts | 202° |
| 2026-05-07 20:53 | 46.70739 | 1.51081 | 35005 ft | 434 kts | 202° |
| 2026-05-07 20:54 | 46.65098 | 1.47963 | 35003 ft | 434 kts | 202° |
| 2026-05-07 20:54 | 46.59456 | 1.44851 | 34990 ft | 434 kts | 202° |
| 2026-05-07 20:55 | 46.53816 | 1.41747 | 34985 ft | 433 kts | 202° |
| 2026-05-07 20:55 | 46.48173 | 1.38649 | 34987 ft | 433 kts | 202° |
| 2026-05-07 20:56 | 46.42535 | 1.35560 | 34984 ft | 434 kts | 202° |
| 2026-05-07 20:56 | 46.36887 | 1.32472 | 34983 ft | 434 kts | 202° |
| 2026-05-07 20:57 | 46.31241 | 1.29393 | 34983 ft | 434 kts | 202° |
| 2026-05-07 20:57 | 46.25596 | 1.26320 | 34980 ft | 434 kts | 202° |
| 2026-05-07 20:58 | 46.19947 | 1.23252 | 34982 ft | 434 kts | 202° |
| 2026-05-07 20:58 | 46.14292 | 1.20188 | 34980 ft | 434 kts | 202° |
| 2026-05-07 20:59 | 46.08639 | 1.17132 | 34985 ft | 434 kts | 202° |
| 2026-05-07 20:59 | 46.02985 | 1.14081 | 34986 ft | 434 kts | 201° |
| 2026-05-07 21:00 | 45.97319 | 1.11030 | 34988 ft | 434 kts | 201° |
| 2026-05-07 21:00 | 45.91659 | 1.07989 | 34994 ft | 434 kts | 201° |
| 2026-05-07 21:01 | 45.85998 | 1.04954 | 34996 ft | 434 kts | 201° |
| 2026-05-07 21:01 | 45.80559 | 1.01270 | 34993 ft | 432 kts | 213° |
| 2026-05-07 21:02 | 45.75868 | 0.95886 | 34998 ft | 432 kts | 220° |
| 2026-05-07 21:02 | 45.71293 | 0.90318 | 34976 ft | 432 kts | 220° |
| 2026-05-07 21:03 | 45.66702 | 0.84788 | 34973 ft | 432 kts | 220° |
| 2026-05-07 21:03 | 45.62116 | 0.79313 | 34960 ft | 432 kts | 219° |
| 2026-05-07 21:04 | 45.57499 | 0.73824 | 34954 ft | 432 kts | 219° |
| 2026-05-07 21:04 | 45.52872 | 0.68337 | 34959 ft | 433 kts | 219° |
| 2026-05-07 21:05 | 45.48235 | 0.62849 | 34960 ft | 433 kts | 219° |
| 2026-05-07 21:05 | 45.43595 | 0.57369 | 34958 ft | 433 kts | 219° |
| 2026-05-07 21:06 | 45.38949 | 0.51895 | 34956 ft | 434 kts | 219° |
| 2026-05-07 21:06 | 45.34292 | 0.46418 | 34954 ft | 434 kts | 219° |
| 2026-05-07 21:07 | 45.29630 | 0.40948 | 34958 ft | 435 kts | 219° |
| 2026-05-07 21:07 | 45.24960 | 0.35481 | 34950 ft | 436 kts | 219° |
| 2026-05-07 21:08 | 45.20285 | 0.30020 | 34953 ft | 436 kts | 219° |
| 2026-05-07 21:08 | 45.15594 | 0.24552 | 34946 ft | 437 kts | 219° |
| 2026-05-07 21:09 | 45.10895 | 0.19087 | 34950 ft | 437 kts | 219° |
| 2026-05-07 21:09 | 45.06190 | 0.13624 | 34947 ft | 438 kts | 219° |
| 2026-05-07 21:10 | 45.01473 | 0.08163 | 34944 ft | 438 kts | 219° |
| 2026-05-07 21:10 | 44.96748 | 0.02706 | 34940 ft | 439 kts | 219° |
| 2026-05-07 21:11 | 44.92045 | -0.02715 | 34940 ft | 440 kts | 219° |
| 2026-05-07 21:11 | 44.84930 | -0.10899 | 34940 ft | 441 kts | 219° |
| 2026-05-07 21:12 | 44.80173 | -0.16356 | 34943 ft | 441 kts | 219° |
| 2026-05-07 21:12 | 44.75415 | -0.21802 | 34942 ft | 441 kts | 219° |
| 2026-05-07 21:13 | 44.70653 | -0.27242 | 34947 ft | 441 kts | 219° |
| 2026-05-07 21:13 | 44.65888 | -0.32673 | 34946 ft | 441 kts | 219° |
| 2026-05-07 21:14 | 44.60944 | -0.37790 | 34941 ft | 442 kts | 215° |
| 2026-05-07 21:14 | 44.55847 | -0.42612 | 34945 ft | 442 kts | 215° |
| 2026-05-07 21:15 | 44.50755 | -0.47440 | 34945 ft | 442 kts | 215° |
| 2026-05-07 21:15 | 44.45682 | -0.52298 | 34946 ft | 442 kts | 216° |
| 2026-05-07 21:16 | 44.40606 | -0.57166 | 34946 ft | 442 kts | 216° |
| 2026-05-07 21:16 | 44.35523 | -0.62030 | 34941 ft | 443 kts | 216° |
| 2026-05-07 21:17 | 44.30437 | -0.66886 | 34938 ft | 443 kts | 216° |
| 2026-05-07 21:17 | 44.25369 | -0.71785 | 34938 ft | 443 kts | 217° |
| 2026-05-07 21:18 | 44.22890 | -0.74303 | 34738 ft | 438 kts | 218° |
| 2026-05-07 21:18 | 44.20487 | -0.76777 | 34653 ft | 425 kts | 218° |
| 2026-05-07 21:18 | 44.16497 | -0.80895 | 34175 ft | 437 kts | 218° |
| 2026-05-07 21:19 | 44.14045 | -0.83413 | 33744 ft | 439 kts | 218° |
| 2026-05-07 21:19 | 44.11594 | -0.85917 | 33254 ft | 433 kts | 218° |
| 2026-05-07 21:19 | 44.09184 | -0.88369 | 32834 ft | 424 kts | 218° |
| 2026-05-07 21:19 | 44.06822 | -0.90766 | 32409 ft | 416 kts | 218° |
| 2026-05-07 21:20 | 44.04506 | -0.93112 | 32001 ft | 409 kts | 218° |
| 2026-05-07 21:20 | 44.02222 | -0.95425 | 31604 ft | 403 kts | 218° |
| 2026-05-07 21:20 | 43.99969 | -0.97705 | 31196 ft | 398 kts | 218° |
| 2026-05-07 21:20 | 43.97743 | -0.99956 | 30792 ft | 393 kts | 218° |
| 2026-05-07 21:21 | 43.95543 | -1.02178 | 30421 ft | 389 kts | 218° |
| 2026-05-07 21:21 | 43.93367 | -1.04375 | 30045 ft | 386 kts | 218° |
| 2026-05-07 21:21 | 43.91203 | -1.06557 | 29608 ft | 383 kts | 218° |
| 2026-05-07 21:21 | 43.89058 | -1.08718 | 29215 ft | 381 kts | 217° |
| 2026-05-07 21:22 | 43.86937 | -1.10855 | 28821 ft | 384 kts | 217° |
| 2026-05-07 21:22 | 43.84771 | -1.13034 | 28406 ft | 385 kts | 217° |
| 2026-05-07 21:22 | 43.82610 | -1.15204 | 27993 ft | 382 kts | 217° |
| 2026-05-07 21:22 | 43.80472 | -1.17350 | 27590 ft | 379 kts | 217° |
| 2026-05-07 21:23 | 43.78340 | -1.19488 | 27184 ft | 377 kts | 217° |
| 2026-05-07 21:23 | 43.76222 | -1.21610 | 26775 ft | 375 kts | 217° |
| 2026-05-07 21:23 | 43.74116 | -1.23718 | 26374 ft | 373 kts | 217° |
| 2026-05-07 21:23 | 43.72029 | -1.25832 | 25955 ft | 371 kts | 219° |
| 2026-05-07 21:24 | 43.70117 | -1.28221 | 25444 ft | 369 kts | 224° |
| 2026-05-07 21:24 | 43.68296 | -1.30690 | 25034 ft | 365 kts | 225° |
| 2026-05-07 21:24 | 43.66509 | -1.33150 | 24638 ft | 361 kts | 225° |
| 2026-05-07 21:24 | 43.64734 | -1.35589 | 24255 ft | 359 kts | 225° |
| 2026-05-07 21:25 | 43.62961 | -1.38011 | 23859 ft | 358 kts | 225° |
| 2026-05-07 21:25 | 43.61191 | -1.40416 | 23484 ft | 357 kts | 224° |
| 2026-05-07 21:25 | 43.59423 | -1.42806 | 23039 ft | 355 kts | 224° |
| 2026-05-07 21:25 | 43.57657 | -1.45184 | 22639 ft | 354 kts | 224° |
| 2026-05-07 21:26 | 43.55902 | -1.47542 | 22258 ft | 352 kts | 224° |
| 2026-05-07 21:26 | 43.54154 | -1.49887 | 21871 ft | 351 kts | 224° |
| 2026-05-07 21:26 | 43.52407 | -1.52227 | 21483 ft | 350 kts | 224° |
| 2026-05-07 21:26 | 43.50660 | -1.54565 | 21107 ft | 349 kts | 224° |
| 2026-05-07 21:27 | 43.48917 | -1.56896 | 20729 ft | 349 kts | 224° |
| 2026-05-07 21:27 | 43.47175 | -1.59223 | 20352 ft | 349 kts | 224° |
| 2026-05-07 21:27 | 43.45434 | -1.61546 | 19974 ft | 349 kts | 224° |
| 2026-05-07 21:27 | 43.43697 | -1.63863 | 19600 ft | 349 kts | 224° |
| 2026-05-07 21:28 | 43.41949 | -1.66192 | 19221 ft | 349 kts | 224° |
| 2026-05-07 21:28 | 43.40207 | -1.68511 | 18840 ft | 348 kts | 224° |
| 2026-05-07 21:28 | 43.38468 | -1.70824 | 18467 ft | 348 kts | 224° |
| 2026-05-07 21:28 | 43.36731 | -1.73133 | 18069 ft | 347 kts | 224° |
| 2026-05-07 21:29 | 43.34996 | -1.75437 | 17646 ft | 346 kts | 224° |
| 2026-05-07 21:29 | 43.33276 | -1.77720 | 17244 ft | 342 kts | 224° |
| 2026-05-07 21:29 | 43.31575 | -1.79975 | 16863 ft | 338 kts | 224° |
| 2026-05-07 21:29 | 43.29895 | -1.82200 | 16491 ft | 334 kts | 224° |
| 2026-05-07 21:30 | 43.28232 | -1.84401 | 16130 ft | 330 kts | 224° |
| 2026-05-07 21:30 | 43.26606 | -1.86552 | 15778 ft | 328 kts | 224° |
| 2026-05-07 21:30 | 43.24975 | -1.88708 | 15428 ft | 324 kts | 224° |
| 2026-05-07 21:30 | 43.23339 | -1.90868 | 15076 ft | 321 kts | 223° |
| 2026-05-07 21:31 | 43.21735 | -1.92985 | 14733 ft | 318 kts | 223° |
| 2026-05-07 21:31 | 43.20145 | -1.95081 | 14394 ft | 316 kts | 223° |
| 2026-05-07 21:31 | 43.18572 | -1.97154 | 14061 ft | 313 kts | 223° |
| 2026-05-07 21:31 | 43.17003 | -1.99220 | 13717 ft | 311 kts | 223° |
| 2026-05-07 21:32 | 43.15453 | -2.01260 | 13355 ft | 309 kts | 223° |
| 2026-05-07 21:32 | 43.13905 | -2.03294 | 12984 ft | 307 kts | 223° |
| 2026-05-07 21:32 | 43.12373 | -2.05306 | 12621 ft | 304 kts | 223° |
| 2026-05-07 21:32 | 43.10854 | -2.07301 | 12261 ft | 302 kts | 223° |
| 2026-05-07 21:33 | 43.09360 | -2.09261 | 11911 ft | 301 kts | 223° |
| 2026-05-07 21:33 | 43.07857 | -2.11231 | 11559 ft | 299 kts | 223° |
| 2026-05-07 21:33 | 43.06359 | -2.13195 | 11183 ft | 298 kts | 223° |
| 2026-05-07 21:33 | 43.04859 | -2.15158 | 10787 ft | 299 kts | 223° |
| 2026-05-07 21:34 | 43.03361 | -2.17118 | 10401 ft | 298 kts | 223° |
| 2026-05-07 21:34 | 43.01859 | -2.19081 | 10012 ft | 298 kts | 223° |
| 2026-05-07 21:34 | 43.00386 | -2.21075 | 9612 ft | 299 kts | 230° |
| 2026-05-07 21:34 | 42.99447 | -2.23597 | 9185 ft | 301 kts | 255° |
| 2026-05-07 21:35 | 42.99327 | -2.26438 | 8765 ft | 304 kts | 276° |
| 2026-05-07 21:35 | 42.99917 | -2.29221 | 8386 ft | 305 kts | 288° |
| 2026-05-07 21:35 | 43.00695 | -2.31893 | 7966 ft | 300 kts | 290° |
| 2026-05-07 21:35 | 43.01476 | -2.34494 | 7554 ft | 292 kts | 289° |
| 2026-05-07 21:36 | 43.02211 | -2.36959 | 7171 ft | 286 kts | 289° |
| 2026-05-07 21:36 | 43.02961 | -2.39511 | 6890 ft | 275 kts | 289° |
| 2026-05-07 21:36 | 43.03654 | -2.41900 | 6608 ft | 266 kts | 288° |
| 2026-05-07 21:36 | 43.04327 | -2.44240 | 6242 ft | 262 kts | 288° |
| 2026-05-07 21:37 | 43.04987 | -2.46547 | 5852 ft | 259 kts | 288° |
| 2026-05-07 21:37 | 43.05634 | -2.48828 | 5465 ft | 256 kts | 286° |
| 2026-05-07 21:37 | 43.06077 | -2.51158 | 5080 ft | 251 kts | 275° |
| 2026-05-07 21:37 | 43.06170 | -2.53496 | 4744 ft | 243 kts | 263° |
| 2026-05-07 21:38 | 43.05921 | -2.55744 | 4441 ft | 237 kts | 252° |
| 2026-05-07 21:38 | 43.05349 | -2.57835 | 4092 ft | 233 kts | 240° |
| 2026-05-07 21:38 | 43.04483 | -2.59608 | 3996 ft | 216 kts | 224° |
| 2026-05-07 21:38 | 43.03295 | -2.60625 | 3988 ft | 203 kts | 190° |
| 2026-05-07 21:39 | 43.01873 | -2.60531 | 4024 ft | 204 kts | 175° |
| 2026-05-07 21:39 | 43.00511 | -2.60872 | 4016 ft | 198 kts | 204° |
| 2026-05-07 21:39 | 42.99288 | -2.61725 | 4019 ft | 195 kts | 207° |
| 2026-05-07 21:39 | 42.98170 | -2.62642 | 3867 ft | 187 kts | 212° |
| 2026-05-07 21:40 | 42.97099 | -2.63632 | 3632 ft | 184 kts | 213° |
| 2026-05-07 21:40 | 42.96065 | -2.64625 | 3407 ft | 180 kts | 214° |
| 2026-05-07 21:40 | 42.95048 | -2.65616 | 3183 ft | 175 kts | 214° |
| 2026-05-07 21:40 | 42.94086 | -2.66565 | 2913 ft | 169 kts | 216° |
| 2026-05-07 21:41 | 42.93214 | -2.67617 | 2555 ft | 166 kts | 221° |
| 2026-05-07 21:41 | 42.92334 | -2.68505 | 2424 ft | 150 kts | 212° |
| 2026-05-07 21:41 | 42.91514 | -2.69232 | 2287 ft | 134 kts | 215° |
| 2026-05-07 21:41 | 42.90744 | -2.70007 | 2092 ft | 143 kts | 217° |
| 2026-05-07 21:42 | 42.89922 | -2.70827 | 1865 ft | 149 kts | 216° |
| 2026-05-07 21:42 | 42.89082 | -2.71663 | 1692 ft | 149 kts | 216° |
| 2026-05-07 21:42 | 42.88318 | -2.72411 | 1686 ft | 116 kts | 216° |
| 2026-05-07 21:42 | 42.87784 | -2.72938 | 1674 ft | 74 kts | 216° |
| 2026-05-07 21:43 | 42.87465 | -2.73250 | 1675 ft | 49 kts | 216° |
| 2026-05-07 21:43 | 42.87201 | -2.73509 | 1685 ft | 44 kts | 216° |
| 2026-05-07 21:43 | 42.87057 | -2.73668 | 1673 ft | 15 kts | 242° |
| 2026-05-07 21:43 | 42.87077 | -2.73797 | 1683 ft | 14 kts | 303° |
| 2026-05-07 21:44 | 42.87101 | -2.73843 | 1677 ft | 0 kts | 305° |
| 2026-05-07 21:44 | 42.87103 | -2.73847 | 1678 ft | 2 kts | 305° |
| 2026-05-07 21:44 | 42.87128 | -2.73895 | 1686 ft | 9 kts | 305° |
| 2026-05-07 21:45 | 42.87185 | -2.73925 | 1681 ft | 10 kts | 19° |
| 2026-05-07 21:45 | 42.87241 | -2.73878 | 1676 ft | 9 kts | 33° |
| 2026-05-07 21:45 | 42.87285 | -2.73819 | 1676 ft | 9 kts | 68° |
| 2026-05-07 21:45 | 42.87298 | -2.73737 | 1676 ft | 9 kts | 78° |
| 2026-05-07 21:46 | 42.87324 | -2.73669 | 1685 ft | 9 kts | 19° |
| 2026-05-07 21:46 | 42.87379 | -2.73639 | 1681 ft | 8 kts | 30° |
| 2026-05-07 21:46 | 42.87425 | -2.73593 | 1679 ft | 8 kts | 38° |
| 2026-05-07 21:46 | 42.87469 | -2.73546 | 1678 ft | 8 kts | 35° |
| 2026-05-07 21:47 | 42.87513 | -2.73505 | 1676 ft | 8 kts | 34° |
| 2026-05-07 21:47 | 42.87556 | -2.73465 | 1676 ft | 7 kts | 35° |
| 2026-05-07 21:47 | 42.87596 | -2.73425 | 1680 ft | 7 kts | 36° |
| 2026-05-07 21:47 | 42.87635 | -2.73387 | 1685 ft | 7 kts | 36° |
| 2026-05-07 21:48 | 42.87673 | -2.73349 | 1679 ft | 7 kts | 36° |
| 2026-05-07 21:48 | 42.87711 | -2.73313 | 1680 ft | 7 kts | 32° |
| 2026-05-07 21:48 | 42.87753 | -2.73316 | 1676 ft | 6 kts | 326° |
| 2026-05-07 21:48 | 42.87781 | -2.73363 | 1682 ft | 6 kts | 306° |
| 2026-05-07 21:49 | 42.87807 | -2.73414 | 1683 ft | 7 kts | 306° |
| 2026-05-07 21:49 | 42.87847 | -2.73445 | 1682 ft | 7 kts | 15° |
| 2026-05-07 21:49 | 42.87888 | -2.73400 | 1676 ft | 8 kts | 41° |
| 2026-05-07 21:49 | 42.87938 | -2.73379 | 1676 ft | 8 kts | 339° |
| 2026-05-07 21:50 | 42.87971 | -2.73444 | 1676 ft | 9 kts | 301° |
| 2026-05-07 21:50 | 42.88021 | -2.73439 | 1678 ft | 9 kts | 37° |
| 2026-05-07 21:50 | 42.88050 | -2.73410 | 1680 ft | 1 kts | 37° |
| 2026-05-07 21:50 | 42.88050 | -2.73409 | 1680 ft | 0 kts | 37° |